sensor_id;sensor_type;location;lat;lon;timestamp;P1;durP1;ratioP1;P2;durP2;ratioP2
14732;SDS011;7457;50.960;6.830;2024-01-16T00:00:33;12.23;;;8.48;;
14732;SDS011;7457;50.960;6.830;2024-01-16T00:02:59;13.63;;;9.50;;
14732;SDS011;7457;50.960;6.830;2024-01-16T00:05:25;11.93;;;8.48;;
14732;SDS011;7457;50.960;6.830;2024-01-16T00:07:50;10.40;;;8.07;;
14732;SDS011;7457;50.960;6.830;2024-01-16T00:10:16;13.82;;;8.98;;
14732;SDS011;7457;50.960;6.830;2024-01-16T00:12:42;11.15;;;8.38;;
14732;SDS011;7457;50.960;6.830;2024-01-16T00:15:08;12.73;;;8.73;;
14732;SDS011;7457;50.960;6.830;2024-01-16T00:17:34;13.20;;;9.25;;
14732;SDS011;7457;50.960;6.830;2024-01-16T00:20:00;15.20;;;9.00;;
14732;SDS011;7457;50.960;6.830;2024-01-16T00:22:29;10.52;;;8.25;;
14732;SDS011;7457;50.960;6.830;2024-01-16T00:24:54;11.40;;;8.52;;
14732;SDS011;7457;50.960;6.830;2024-01-16T00:27:20;10.77;;;7.18;;
14732;SDS011;7457;50.960;6.830;2024-01-16T00:29:46;9.65;;;7.60;;
14732;SDS011;7457;50.960;6.830;2024-01-16T00:32:12;13.20;;;7.90;;
14732;SDS011;7457;50.960;6.830;2024-01-16T00:34:41;11.68;;;8.05;;
14732;SDS011;7457;50.960;6.830;2024-01-16T00:37:07;13.52;;;8.70;;
14732;SDS011;7457;50.960;6.830;2024-01-16T00:39:33;13.27;;;8.40;;
14732;SDS011;7457;50.960;6.830;2024-01-16T00:41:58;13.45;;;9.05;;
14732;SDS011;7457;50.960;6.830;2024-01-16T00:44:24;17.63;;;8.88;;
14732;SDS011;7457;50.960;6.830;2024-01-16T00:46:50;11.27;;;8.48;;
14732;SDS011;7457;50.960;6.830;2024-01-16T00:49:16;10.85;;;8.13;;
14732;SDS011;7457;50.960;6.830;2024-01-16T00:51:41;13.02;;;8.77;;
14732;SDS011;7457;50.960;6.830;2024-01-16T00:54:07;11.63;;;8.40;;
14732;SDS011;7457;50.960;6.830;2024-01-16T00:56:33;13.55;;;8.25;;
14732;SDS011;7457;50.960;6.830;2024-01-16T00:59:00;12.25;;;7.45;;
14732;SDS011;7457;50.960;6.830;2024-01-16T01:01:26;9.63;;;7.90;;
14732;SDS011;7457;50.960;6.830;2024-01-16T01:03:52;9.90;;;7.70;;
14732;SDS011;7457;50.960;6.830;2024-01-16T01:06:17;11.43;;;8.13;;
14732;SDS011;7457;50.960;6.830;2024-01-16T01:08:43;9.48;;;7.65;;
14732;SDS011;7457;50.960;6.830;2024-01-16T01:11:09;12.10;;;7.80;;
14732;SDS011;7457;50.960;6.830;2024-01-16T01:13:34;13.75;;;7.82;;
14732;SDS011;7457;50.960;6.830;2024-01-16T01:16:00;10.90;;;6.80;;
14732;SDS011;7457;50.960;6.830;2024-01-16T01:18:26;10.45;;;7.63;;
14732;SDS011;7457;50.960;6.830;2024-01-16T01:20:51;11.27;;;6.85;;
14732;SDS011;7457;50.960;6.830;2024-01-16T01:23:17;12.20;;;6.50;;
14732;SDS011;7457;50.960;6.830;2024-01-16T01:25:43;13.27;;;6.72;;
14732;SDS011;7457;50.960;6.830;2024-01-16T01:28:08;11.93;;;7.53;;
14732;SDS011;7457;50.960;6.830;2024-01-16T01:30:36;10.25;;;7.40;;
14732;SDS011;7457;50.960;6.830;2024-01-16T01:33:02;10.57;;;6.25;;
14732;SDS011;7457;50.960;6.830;2024-01-16T01:35:27;9.15;;;6.28;;
14732;SDS011;7457;50.960;6.830;2024-01-16T01:37:53;12.20;;;7.28;;
14732;SDS011;7457;50.960;6.830;2024-01-16T01:40:19;12.32;;;6.72;;
14732;SDS011;7457;50.960;6.830;2024-01-16T01:42:44;9.55;;;6.82;;
14732;SDS011;7457;50.960;6.830;2024-01-16T01:45:10;11.27;;;7.05;;
14732;SDS011;7457;50.960;6.830;2024-01-16T01:47:39;12.10;;;8.32;;
14732;SDS011;7457;50.960;6.830;2024-01-16T01:50:07;11.10;;;7.95;;
14732;SDS011;7457;50.960;6.830;2024-01-16T01:52:34;12.07;;;7.75;;
14732;SDS011;7457;50.960;6.830;2024-01-16T01:55:03;13.60;;;8.95;;
14732;SDS011;7457;50.960;6.830;2024-01-16T01:57:31;13.18;;;8.73;;
14732;SDS011;7457;50.960;6.830;2024-01-16T01:59:58;13.35;;;7.97;;
14732;SDS011;7457;50.960;6.830;2024-01-16T02:02:24;15.48;;;8.98;;
14732;SDS011;7457;50.960;6.830;2024-01-16T02:04:50;12.23;;;9.00;;
14732;SDS011;7457;50.960;6.830;2024-01-16T02:07:16;12.38;;;9.35;;
14732;SDS011;7457;50.960;6.830;2024-01-16T02:09:43;13.60;;;9.77;;
14732;SDS011;7457;50.960;6.830;2024-01-16T02:12:09;12.50;;;9.38;;
14732;SDS011;7457;50.960;6.830;2024-01-16T02:14:34;12.10;;;8.75;;
14732;SDS011;7457;50.960;6.830;2024-01-16T02:17:00;15.23;;;9.70;;
14732;SDS011;7457;50.960;6.830;2024-01-16T02:19:26;14.48;;;9.73;;
14732;SDS011;7457;50.960;6.830;2024-01-16T02:21:52;15.88;;;10.70;;
14732;SDS011;7457;50.960;6.830;2024-01-16T02:24:24;13.02;;;10.38;;
14732;SDS011;7457;50.960;6.830;2024-01-16T02:26:50;14.18;;;9.40;;
14732;SDS011;7457;50.960;6.830;2024-01-16T02:29:15;14.05;;;9.23;;
14732;SDS011;7457;50.960;6.830;2024-01-16T02:31:41;11.70;;;8.45;;
14732;SDS011;7457;50.960;6.830;2024-01-16T02:34:07;12.30;;;9.60;;
14732;SDS011;7457;50.960;6.830;2024-01-16T02:36:33;13.38;;;8.45;;
14732;SDS011;7457;50.960;6.830;2024-01-16T02:38:59;15.13;;;8.15;;
14732;SDS011;7457;50.960;6.830;2024-01-16T02:41:27;15.77;;;8.65;;
14732;SDS011;7457;50.960;6.830;2024-01-16T02:43:52;10.80;;;8.50;;
14732;SDS011;7457;50.960;6.830;2024-01-16T02:46:18;12.90;;;8.95;;
14732;SDS011;7457;50.960;6.830;2024-01-16T02:48:43;13.82;;;8.38;;
14732;SDS011;7457;50.960;6.830;2024-01-16T02:51:10;15.63;;;8.35;;
14732;SDS011;7457;50.960;6.830;2024-01-16T02:53:36;12.38;;;8.50;;
14732;SDS011;7457;50.960;6.830;2024-01-16T02:56:01;11.80;;;9.70;;
14732;SDS011;7457;50.960;6.830;2024-01-16T02:58:27;12.57;;;8.93;;
14732;SDS011;7457;50.960;6.830;2024-01-16T03:00:54;12.20;;;8.70;;
14732;SDS011;7457;50.960;6.830;2024-01-16T03:03:20;10.70;;;6.95;;
14732;SDS011;7457;50.960;6.830;2024-01-16T03:05:46;16.70;;;8.93;;
14732;SDS011;7457;50.960;6.830;2024-01-16T03:08:12;13.00;;;8.55;;
14732;SDS011;7457;50.960;6.830;2024-01-16T03:10:37;10.98;;;8.35;;
14732;SDS011;7457;50.960;6.830;2024-01-16T03:13:03;16.60;;;9.13;;
14732;SDS011;7457;50.960;6.830;2024-01-16T03:15:29;12.85;;;8.13;;
14732;SDS011;7457;50.960;6.830;2024-01-16T03:17:56;12.85;;;7.00;;
14732;SDS011;7457;50.960;6.830;2024-01-16T03:20:26;15.00;;;8.40;;
14732;SDS011;7457;50.960;6.830;2024-01-16T03:22:52;14.73;;;8.63;;
14732;SDS011;7457;50.960;6.830;2024-01-16T03:25:18;17.17;;;8.57;;
14732;SDS011;7457;50.960;6.830;2024-01-16T03:27:44;14.40;;;8.70;;
14732;SDS011;7457;50.960;6.830;2024-01-16T03:30:10;12.00;;;7.82;;
14732;SDS011;7457;50.960;6.830;2024-01-16T03:32:36;18.02;;;9.05;;
14732;SDS011;7457;50.960;6.830;2024-01-16T03:35:02;12.00;;;8.32;;
14732;SDS011;7457;50.960;6.830;2024-01-16T03:37:28;12.35;;;8.55;;
14732;SDS011;7457;50.960;6.830;2024-01-16T03:39:54;13.18;;;7.95;;
14732;SDS011;7457;50.960;6.830;2024-01-16T03:42:20;10.05;;;7.80;;
14732;SDS011;7457;50.960;6.830;2024-01-16T03:44:46;15.80;;;10.60;;
14732;SDS011;7457;50.960;6.830;2024-01-16T03:47:12;15.77;;;8.52;;
14732;SDS011;7457;50.960;6.830;2024-01-16T03:49:37;13.38;;;7.80;;
14732;SDS011;7457;50.960;6.830;2024-01-16T03:52:03;11.10;;;8.82;;
14732;SDS011;7457;50.960;6.830;2024-01-16T03:54:29;15.88;;;9.63;;
14732;SDS011;7457;50.960;6.830;2024-01-16T03:56:55;13.82;;;9.15;;
14732;SDS011;7457;50.960;6.830;2024-01-16T03:59:21;15.60;;;9.50;;
14732;SDS011;7457;50.960;6.830;2024-01-16T04:01:47;13.38;;;9.88;;
14732;SDS011;7457;50.960;6.830;2024-01-16T04:04:14;16.95;;;9.98;;
14732;SDS011;7457;50.960;6.830;2024-01-16T04:06:40;13.27;;;10.43;;
14732;SDS011;7457;50.960;6.830;2024-01-16T04:09:05;16.00;;;9.80;;
14732;SDS011;7457;50.960;6.830;2024-01-16T04:11:33;17.80;;;9.90;;
14732;SDS011;7457;50.960;6.830;2024-01-16T04:13:59;17.50;;;11.80;;
14732;SDS011;7457;50.960;6.830;2024-01-16T04:16:25;21.95;;;11.98;;
14732;SDS011;7457;50.960;6.830;2024-01-16T04:18:51;15.45;;;10.60;;
14732;SDS011;7457;50.960;6.830;2024-01-16T04:21:17;12.80;;;11.00;;
14732;SDS011;7457;50.960;6.830;2024-01-16T04:23:43;14.95;;;9.85;;
14732;SDS011;7457;50.960;6.830;2024-01-16T04:26:08;14.77;;;11.60;;
14732;SDS011;7457;50.960;6.830;2024-01-16T04:28:34;17.90;;;12.10;;
14732;SDS011;7457;50.960;6.830;2024-01-16T04:31:02;16.10;;;11.25;;
14732;SDS011;7457;50.960;6.830;2024-01-16T04:33:31;18.05;;;11.82;;
14732;SDS011;7457;50.960;6.830;2024-01-16T04:35:56;14.35;;;10.43;;
14732;SDS011;7457;50.960;6.830;2024-01-16T04:38:22;12.80;;;8.80;;
14732;SDS011;7457;50.960;6.830;2024-01-16T04:40:48;15.95;;;9.30;;
14732;SDS011;7457;50.960;6.830;2024-01-16T04:43:14;17.55;;;10.20;;
14732;SDS011;7457;50.960;6.830;2024-01-16T04:45:40;12.98;;;8.30;;
14732;SDS011;7457;50.960;6.830;2024-01-16T04:48:06;14.50;;;9.57;;
14732;SDS011;7457;50.960;6.830;2024-01-16T04:50:33;10.55;;;8.07;;
14732;SDS011;7457;50.960;6.830;2024-01-16T04:52:59;11.80;;;6.97;;
14732;SDS011;7457;50.960;6.830;2024-01-16T04:55:28;9.70;;;7.10;;
14732;SDS011;7457;50.960;6.830;2024-01-16T04:57:54;12.68;;;6.85;;
14732;SDS011;7457;50.960;6.830;2024-01-16T05:00:20;11.90;;;6.13;;
14732;SDS011;7457;50.960;6.830;2024-01-16T05:02:46;13.15;;;6.68;;
14732;SDS011;7457;50.960;6.830;2024-01-16T05:05:12;11.43;;;6.93;;
14732;SDS011;7457;50.960;6.830;2024-01-16T05:07:38;10.52;;;6.65;;
14732;SDS011;7457;50.960;6.830;2024-01-16T05:10:04;8.75;;;5.47;;
14732;SDS011;7457;50.960;6.830;2024-01-16T05:12:31;12.52;;;5.68;;
14732;SDS011;7457;50.960;6.830;2024-01-16T05:14:56;10.60;;;6.75;;
14732;SDS011;7457;50.960;6.830;2024-01-16T05:17:23;12.35;;;6.30;;
14732;SDS011;7457;50.960;6.830;2024-01-16T05:19:48;10.20;;;6.18;;
14732;SDS011;7457;50.960;6.830;2024-01-16T05:22:14;10.25;;;5.85;;
14732;SDS011;7457;50.960;6.830;2024-01-16T05:24:40;9.32;;;5.88;;
14732;SDS011;7457;50.960;6.830;2024-01-16T05:27:06;13.40;;;5.40;;
14732;SDS011;7457;50.960;6.830;2024-01-16T05:29:31;9.25;;;5.55;;
14732;SDS011;7457;50.960;6.830;2024-01-16T05:31:57;11.93;;;5.65;;
14732;SDS011;7457;50.960;6.830;2024-01-16T05:34:23;10.82;;;6.25;;
14732;SDS011;7457;50.960;6.830;2024-01-16T05:36:49;9.70;;;5.57;;
14732;SDS011;7457;50.960;6.830;2024-01-16T05:39:14;6.78;;;5.28;;
14732;SDS011;7457;50.960;6.830;2024-01-16T05:41:40;13.13;;;5.32;;
14732;SDS011;7457;50.960;6.830;2024-01-16T05:44:05;9.75;;;5.15;;
14732;SDS011;7457;50.960;6.830;2024-01-16T05:46:31;9.50;;;5.32;;
14732;SDS011;7457;50.960;6.830;2024-01-16T05:48:57;6.75;;;5.07;;
14732;SDS011;7457;50.960;6.830;2024-01-16T05:51:23;8.75;;;5.18;;
14732;SDS011;7457;50.960;6.830;2024-01-16T05:53:49;9.43;;;5.13;;
14732;SDS011;7457;50.960;6.830;2024-01-16T05:56:14;8.77;;;4.95;;
14732;SDS011;7457;50.960;6.830;2024-01-16T05:58:40;12.38;;;5.95;;
14732;SDS011;7457;50.960;6.830;2024-01-16T06:01:06;7.80;;;4.65;;
14732;SDS011;7457;50.960;6.830;2024-01-16T06:03:31;10.18;;;4.97;;
14732;SDS011;7457;50.960;6.830;2024-01-16T06:05:57;15.48;;;5.80;;
14732;SDS011;7457;50.960;6.830;2024-01-16T06:08:23;7.25;;;4.80;;
14732;SDS011;7457;50.960;6.830;2024-01-16T06:10:49;11.57;;;4.82;;
14732;SDS011;7457;50.960;6.830;2024-01-16T06:13:15;7.82;;;4.65;;
14732;SDS011;7457;50.960;6.830;2024-01-16T06:15:42;9.63;;;4.40;;
14732;SDS011;7457;50.960;6.830;2024-01-16T06:18:07;8.35;;;4.72;;
14732;SDS011;7457;50.960;6.830;2024-01-16T06:20:33;7.78;;;5.28;;
14732;SDS011;7457;50.960;6.830;2024-01-16T06:22:59;12.13;;;5.32;;
14732;SDS011;7457;50.960;6.830;2024-01-16T06:25:25;7.65;;;5.07;;
14732;SDS011;7457;50.960;6.830;2024-01-16T06:27:50;8.52;;;5.00;;
14732;SDS011;7457;50.960;6.830;2024-01-16T06:30:16;12.32;;;5.35;;
14732;SDS011;7457;50.960;6.830;2024-01-16T06:32:41;8.48;;;4.70;;
14732;SDS011;7457;50.960;6.830;2024-01-16T06:35:07;9.98;;;5.78;;
14732;SDS011;7457;50.960;6.830;2024-01-16T06:37:33;6.55;;;4.57;;
14732;SDS011;7457;50.960;6.830;2024-01-16T06:39:59;13.50;;;5.15;;
14732;SDS011;7457;50.960;6.830;2024-01-16T06:42:25;8.32;;;4.82;;
14732;SDS011;7457;50.960;6.830;2024-01-16T06:44:50;11.95;;;5.32;;
14732;SDS011;7457;50.960;6.830;2024-01-16T06:47:16;9.60;;;4.97;;
14732;SDS011;7457;50.960;6.830;2024-01-16T06:49:41;10.73;;;5.05;;
14732;SDS011;7457;50.960;6.830;2024-01-16T06:52:08;9.38;;;5.25;;
14732;SDS011;7457;50.960;6.830;2024-01-16T06:54:34;10.35;;;4.90;;
14732;SDS011;7457;50.960;6.830;2024-01-16T06:57:00;13.70;;;5.07;;
14732;SDS011;7457;50.960;6.830;2024-01-16T06:59:25;7.72;;;5.05;;
14732;SDS011;7457;50.960;6.830;2024-01-16T07:01:51;10.10;;;4.68;;
14732;SDS011;7457;50.960;6.830;2024-01-16T07:04:17;4.90;;;4.20;;
14732;SDS011;7457;50.960;6.830;2024-01-16T07:06:42;7.68;;;4.53;;
14732;SDS011;7457;50.960;6.830;2024-01-16T07:09:08;6.82;;;4.28;;
14732;SDS011;7457;50.960;6.830;2024-01-16T07:11:37;13.93;;;5.68;;
14732;SDS011;7457;50.960;6.830;2024-01-16T07:14:07;8.70;;;5.18;;
14732;SDS011;7457;50.960;6.830;2024-01-16T07:16:34;9.70;;;4.32;;
14732;SDS011;7457;50.960;6.830;2024-01-16T07:19:00;5.97;;;4.20;;
14732;SDS011;7457;50.960;6.830;2024-01-16T07:21:27;7.95;;;4.15;;
14732;SDS011;7457;50.960;6.830;2024-01-16T07:23:53;6.20;;;4.80;;
14732;SDS011;7457;50.960;6.830;2024-01-16T07:26:19;11.48;;;4.45;;
14732;SDS011;7457;50.960;6.830;2024-01-16T07:28:45;9.68;;;4.55;;
14732;SDS011;7457;50.960;6.830;2024-01-16T07:31:13;7.30;;;4.10;;
14732;SDS011;7457;50.960;6.830;2024-01-16T07:33:39;6.40;;;3.55;;
14732;SDS011;7457;50.960;6.830;2024-01-16T07:36:05;6.38;;;4.22;;
14732;SDS011;7457;50.960;6.830;2024-01-16T07:38:31;9.10;;;4.20;;
14732;SDS011;7457;50.960;6.830;2024-01-16T07:40:57;8.20;;;4.78;;
14732;SDS011;7457;50.960;6.830;2024-01-16T07:43:23;9.75;;;4.20;;
14732;SDS011;7457;50.960;6.830;2024-01-16T07:45:49;8.55;;;3.95;;
14732;SDS011;7457;50.960;6.830;2024-01-16T07:48:14;8.18;;;4.30;;
14732;SDS011;7457;50.960;6.830;2024-01-16T07:50:40;7.30;;;3.75;;
14732;SDS011;7457;50.960;6.830;2024-01-16T07:53:06;9.13;;;5.18;;
14732;SDS011;7457;50.960;6.830;2024-01-16T07:55:32;9.65;;;4.60;;
14732;SDS011;7457;50.960;6.830;2024-01-16T07:57:57;7.20;;;3.70;;
14732;SDS011;7457;50.960;6.830;2024-01-16T08:00:23;6.10;;;3.85;;
14732;SDS011;7457;50.960;6.830;2024-01-16T08:02:48;5.65;;;3.47;;
14732;SDS011;7457;50.960;6.830;2024-01-16T08:05:14;6.93;;;3.50;;
14732;SDS011;7457;50.960;6.830;2024-01-16T08:07:42;8.82;;;3.50;;
14732;SDS011;7457;50.960;6.830;2024-01-16T08:10:08;9.43;;;4.28;;
14732;SDS011;7457;50.960;6.830;2024-01-16T08:12:34;8.98;;;3.97;;
14732;SDS011;7457;50.960;6.830;2024-01-16T08:15:00;5.88;;;3.03;;
14732;SDS011;7457;50.960;6.830;2024-01-16T08:17:25;7.97;;;3.63;;
14732;SDS011;7457;50.960;6.830;2024-01-16T08:19:51;9.27;;;3.80;;
14732;SDS011;7457;50.960;6.830;2024-01-16T08:22:16;6.82;;;3.70;;
14732;SDS011;7457;50.960;6.830;2024-01-16T08:24:42;8.80;;;3.83;;
14732;SDS011;7457;50.960;6.830;2024-01-16T08:27:08;6.03;;;2.78;;
14732;SDS011;7457;50.960;6.830;2024-01-16T08:29:33;10.25;;;3.70;;
14732;SDS011;7457;50.960;6.830;2024-01-16T08:31:59;5.95;;;3.40;;
14732;SDS011;7457;50.960;6.830;2024-01-16T08:34:25;4.07;;;2.92;;
14732;SDS011;7457;50.960;6.830;2024-01-16T08:36:50;7.03;;;3.53;;
14732;SDS011;7457;50.960;6.830;2024-01-16T08:39:16;5.50;;;3.40;;
14732;SDS011;7457;50.960;6.830;2024-01-16T08:41:42;8.68;;;3.92;;
14732;SDS011;7457;50.960;6.830;2024-01-16T08:44:08;5.90;;;3.00;;
14732;SDS011;7457;50.960;6.830;2024-01-16T08:46:33;6.13;;;2.88;;
14732;SDS011;7457;50.960;6.830;2024-01-16T08:48:59;5.85;;;3.80;;
14732;SDS011;7457;50.960;6.830;2024-01-16T08:51:24;6.28;;;3.38;;
14732;SDS011;7457;50.960;6.830;2024-01-16T08:53:51;6.05;;;2.88;;
14732;SDS011;7457;50.960;6.830;2024-01-16T08:56:16;8.55;;;3.70;;
14732;SDS011;7457;50.960;6.830;2024-01-16T08:58:42;5.97;;;3.08;;
14732;SDS011;7457;50.960;6.830;2024-01-16T09:01:08;10.50;;;3.50;;
14732;SDS011;7457;50.960;6.830;2024-01-16T09:03:35;5.47;;;3.28;;
14732;SDS011;7457;50.960;6.830;2024-01-16T09:06:01;7.88;;;3.53;;
14732;SDS011;7457;50.960;6.830;2024-01-16T09:08:27;5.10;;;3.17;;
14732;SDS011;7457;50.960;6.830;2024-01-16T09:10:54;7.00;;;3.13;;
14732;SDS011;7457;50.960;6.830;2024-01-16T09:13:21;8.73;;;3.05;;
14732;SDS011;7457;50.960;6.830;2024-01-16T09:15:48;4.43;;;2.97;;
14732;SDS011;7457;50.960;6.830;2024-01-16T09:18:14;8.68;;;3.60;;
14732;SDS011;7457;50.960;6.830;2024-01-16T09:20:41;8.75;;;3.63;;
14732;SDS011;7457;50.960;6.830;2024-01-16T09:23:07;7.15;;;3.42;;
14732;SDS011;7457;50.960;6.830;2024-01-16T09:25:33;6.60;;;3.00;;
14732;SDS011;7457;50.960;6.830;2024-01-16T09:28:00;7.75;;;3.45;;
14732;SDS011;7457;50.960;6.830;2024-01-16T09:30:25;5.15;;;3.30;;
14732;SDS011;7457;50.960;6.830;2024-01-16T09:32:51;5.43;;;3.25;;
14732;SDS011;7457;50.960;6.830;2024-01-16T09:35:17;8.05;;;3.20;;
14732;SDS011;7457;50.960;6.830;2024-01-16T09:37:43;5.65;;;3.63;;
14732;SDS011;7457;50.960;6.830;2024-01-16T09:40:08;7.35;;;3.10;;
14732;SDS011;7457;50.960;6.830;2024-01-16T09:42:35;4.38;;;3.53;;
14732;SDS011;7457;50.960;6.830;2024-01-16T09:45:01;5.78;;;3.67;;
14732;SDS011;7457;50.960;6.830;2024-01-16T09:47:30;6.28;;;3.58;;
14732;SDS011;7457;50.960;6.830;2024-01-16T09:49:57;6.50;;;3.88;;
14732;SDS011;7457;50.960;6.830;2024-01-16T09:52:25;10.55;;;3.78;;
14732;SDS011;7457;50.960;6.830;2024-01-16T09:54:51;6.53;;;3.30;;
14732;SDS011;7457;50.960;6.830;2024-01-16T09:57:18;5.65;;;4.03;;
14732;SDS011;7457;50.960;6.830;2024-01-16T09:59:48;5.82;;;3.25;;
14732;SDS011;7457;50.960;6.830;2024-01-16T10:02:13;10.70;;;3.83;;
14732;SDS011;7457;50.960;6.830;2024-01-16T10:04:41;6.43;;;3.83;;
14732;SDS011;7457;50.960;6.830;2024-01-16T10:07:07;7.50;;;3.13;;
14732;SDS011;7457;50.960;6.830;2024-01-16T10:09:34;10.43;;;3.97;;
14732;SDS011;7457;50.960;6.830;2024-01-16T10:12:00;5.40;;;2.88;;
14732;SDS011;7457;50.960;6.830;2024-01-16T10:14:28;5.85;;;3.00;;
14732;SDS011;7457;50.960;6.830;2024-01-16T10:16:54;6.05;;;3.15;;
14732;SDS011;7457;50.960;6.830;2024-01-16T10:19:22;5.82;;;3.63;;
14732;SDS011;7457;50.960;6.830;2024-01-16T10:21:48;7.88;;;3.67;;
14732;SDS011;7457;50.960;6.830;2024-01-16T10:24:13;5.95;;;3.47;;
14732;SDS011;7457;50.960;6.830;2024-01-16T10:26:39;5.60;;;3.58;;
14732;SDS011;7457;50.960;6.830;2024-01-16T10:29:04;6.10;;;3.10;;
14732;SDS011;7457;50.960;6.830;2024-01-16T10:31:30;5.47;;;3.15;;
14732;SDS011;7457;50.960;6.830;2024-01-16T10:33:56;5.57;;;3.15;;
14732;SDS011;7457;50.960;6.830;2024-01-16T10:36:23;4.53;;;3.38;;
14732;SDS011;7457;50.960;6.830;2024-01-16T10:38:50;4.72;;;2.90;;
14732;SDS011;7457;50.960;6.830;2024-01-16T10:41:23;7.03;;;3.13;;
14732;SDS011;7457;50.960;6.830;2024-01-16T10:44:04;9.43;;;3.17;;
14732;SDS011;7457;50.960;6.830;2024-01-16T10:46:32;8.30;;;3.40;;
14732;SDS011;7457;50.960;6.830;2024-01-16T10:48:58;6.88;;;3.40;;
14732;SDS011;7457;50.960;6.830;2024-01-16T10:51:27;7.85;;;2.92;;
14732;SDS011;7457;50.960;6.830;2024-01-16T10:54:03;7.30;;;3.15;;
14732;SDS011;7457;50.960;6.830;2024-01-16T10:56:33;6.03;;;3.10;;
14732;SDS011;7457;50.960;6.830;2024-01-16T10:59:08;8.43;;;3.28;;
14732;SDS011;7457;50.960;6.830;2024-01-16T11:01:43;8.55;;;3.17;;
14732;SDS011;7457;50.960;6.830;2024-01-16T11:04:13;6.38;;;2.85;;
14732;SDS011;7457;50.960;6.830;2024-01-16T11:06:40;6.55;;;2.90;;
14732;SDS011;7457;50.960;6.830;2024-01-16T11:09:07;6.93;;;3.85;;
14732;SDS011;7457;50.960;6.830;2024-01-16T11:11:34;10.23;;;3.00;;
14732;SDS011;7457;50.960;6.830;2024-01-16T11:14:03;6.10;;;3.60;;
14732;SDS011;7457;50.960;6.830;2024-01-16T11:16:30;7.38;;;3.25;;
14732;SDS011;7457;50.960;6.830;2024-01-16T11:18:57;8.52;;;3.50;;
14732;SDS011;7457;50.960;6.830;2024-01-16T11:21:23;9.32;;;3.70;;
14732;SDS011;7457;50.960;6.830;2024-01-16T11:23:49;6.72;;;3.50;;
14732;SDS011;7457;50.960;6.830;2024-01-16T11:26:28;13.18;;;4.13;;
14732;SDS011;7457;50.960;6.830;2024-01-16T11:28:59;6.72;;;3.20;;
14732;SDS011;7457;50.960;6.830;2024-01-16T11:31:34;5.30;;;3.28;;
14732;SDS011;7457;50.960;6.830;2024-01-16T11:34:01;6.53;;;3.25;;
14732;SDS011;7457;50.960;6.830;2024-01-16T11:39:23;8.00;;;3.55;;
14732;SDS011;7457;50.960;6.830;2024-01-16T11:44:40;7.88;;;3.50;;
14732;SDS011;7457;50.960;6.830;2024-01-16T11:47:18;6.43;;;3.35;;
14732;SDS011;7457;50.960;6.830;2024-01-16T11:49:45;5.78;;;4.00;;
14732;SDS011;7457;50.960;6.830;2024-01-16T11:52:12;12.18;;;4.38;;
14732;SDS011;7457;50.960;6.830;2024-01-16T11:54:38;6.15;;;3.17;;
14732;SDS011;7457;50.960;6.830;2024-01-16T12:02:19;11.20;;;4.03;;
14732;SDS011;7457;50.960;6.830;2024-01-16T12:04:53;6.45;;;4.20;;
14732;SDS011;7457;50.960;6.830;2024-01-16T12:07:22;6.70;;;3.78;;
14732;SDS011;7457;50.960;6.830;2024-01-16T12:09:48;5.47;;;3.58;;
14732;SDS011;7457;50.960;6.830;2024-01-16T12:12:14;6.45;;;3.42;;
14732;SDS011;7457;50.960;6.830;2024-01-16T12:14:41;6.90;;;4.03;;
14732;SDS011;7457;50.960;6.830;2024-01-16T12:17:16;6.43;;;3.65;;
14732;SDS011;7457;50.960;6.830;2024-01-16T12:19:45;8.02;;;3.90;;
14732;SDS011;7457;50.960;6.830;2024-01-16T12:22:14;10.68;;;4.10;;
14732;SDS011;7457;50.960;6.830;2024-01-16T12:24:41;4.38;;;3.10;;
14732;SDS011;7457;50.960;6.830;2024-01-16T12:27:07;6.78;;;4.15;;
14732;SDS011;7457;50.960;6.830;2024-01-16T12:29:34;8.82;;;3.55;;
14732;SDS011;7457;50.960;6.830;2024-01-16T12:32:07;7.78;;;3.85;;
14732;SDS011;7457;50.960;6.830;2024-01-16T12:34:34;7.30;;;3.50;;
14732;SDS011;7457;50.960;6.830;2024-01-16T12:37:08;6.40;;;3.38;;
14732;SDS011;7457;50.960;6.830;2024-01-16T12:39:34;5.28;;;3.10;;
14732;SDS011;7457;50.960;6.830;2024-01-16T12:42:00;8.30;;;3.38;;
14732;SDS011;7457;50.960;6.830;2024-01-16T12:44:29;7.32;;;3.55;;
14732;SDS011;7457;50.960;6.830;2024-01-16T12:46:55;6.63;;;3.15;;
14732;SDS011;7457;50.960;6.830;2024-01-16T12:49:22;10.80;;;4.25;;
14732;SDS011;7457;50.960;6.830;2024-01-16T12:51:49;4.38;;;3.17;;
14732;SDS011;7457;50.960;6.830;2024-01-16T12:54:15;5.72;;;3.50;;
14732;SDS011;7457;50.960;6.830;2024-01-16T12:56:43;7.15;;;3.50;;
14732;SDS011;7457;50.960;6.830;2024-01-16T12:59:10;5.35;;;3.30;;
14732;SDS011;7457;50.960;6.830;2024-01-16T13:01:43;9.63;;;4.30;;
14732;SDS011;7457;50.960;6.830;2024-01-16T13:04:11;5.43;;;3.58;;
14732;SDS011;7457;50.960;6.830;2024-01-16T13:06:39;7.25;;;4.07;;
14732;SDS011;7457;50.960;6.830;2024-01-16T13:09:09;8.80;;;4.15;;
14732;SDS011;7457;50.960;6.830;2024-01-16T13:14:13;7.30;;;3.78;;
14732;SDS011;7457;50.960;6.830;2024-01-16T13:16:39;5.88;;;4.28;;
14732;SDS011;7457;50.960;6.830;2024-01-16T13:19:05;10.27;;;5.00;;
14732;SDS011;7457;50.960;6.830;2024-01-16T13:21:34;6.15;;;4.43;;
14732;SDS011;7457;50.960;6.830;2024-01-16T13:24:02;9.32;;;4.18;;
14732;SDS011;7457;50.960;6.830;2024-01-16T13:26:28;7.95;;;4.40;;
14732;SDS011;7457;50.960;6.830;2024-01-16T13:28:54;9.20;;;4.20;;
14732;SDS011;7457;50.960;6.830;2024-01-16T13:31:19;7.03;;;4.30;;
14732;SDS011;7457;50.960;6.830;2024-01-16T13:33:45;5.63;;;4.05;;
14732;SDS011;7457;50.960;6.830;2024-01-16T13:36:11;6.28;;;4.20;;
14732;SDS011;7457;50.960;6.830;2024-01-16T13:38:36;8.63;;;5.65;;
14732;SDS011;7457;50.960;6.830;2024-01-16T13:41:02;9.93;;;4.82;;
14732;SDS011;7457;50.960;6.830;2024-01-16T13:43:28;9.82;;;4.75;;
14732;SDS011;7457;50.960;6.830;2024-01-16T13:45:54;11.20;;;4.20;;
14732;SDS011;7457;50.960;6.830;2024-01-16T13:48:20;7.90;;;4.32;;
14732;SDS011;7457;50.960;6.830;2024-01-16T13:50:46;8.73;;;4.50;;
14732;SDS011;7457;50.960;6.830;2024-01-16T13:53:12;10.95;;;4.93;;
14732;SDS011;7457;50.960;6.830;2024-01-16T13:55:39;9.13;;;4.85;;
14732;SDS011;7457;50.960;6.830;2024-01-16T13:58:06;7.43;;;4.30;;
14732;SDS011;7457;50.960;6.830;2024-01-16T14:00:32;6.50;;;4.32;;
14732;SDS011;7457;50.960;6.830;2024-01-16T14:02:57;6.22;;;4.00;;
14732;SDS011;7457;50.960;6.830;2024-01-16T14:05:23;7.57;;;3.95;;
14732;SDS011;7457;50.960;6.830;2024-01-16T14:07:49;6.75;;;4.15;;
14732;SDS011;7457;50.960;6.830;2024-01-16T14:10:17;6.80;;;4.63;;
14732;SDS011;7457;50.960;6.830;2024-01-16T14:12:44;5.38;;;4.10;;
14732;SDS011;7457;50.960;6.830;2024-01-16T14:15:12;8.40;;;3.90;;
14732;SDS011;7457;50.960;6.830;2024-01-16T14:17:44;6.50;;;4.10;;
14732;SDS011;7457;50.960;6.830;2024-01-16T14:20:11;9.55;;;4.00;;
14732;SDS011;7457;50.960;6.830;2024-01-16T14:22:37;8.05;;;4.50;;
14732;SDS011;7457;50.960;6.830;2024-01-16T14:25:05;11.13;;;4.68;;
14732;SDS011;7457;50.960;6.830;2024-01-16T14:27:42;8.50;;;4.95;;
14732;SDS011;7457;50.960;6.830;2024-01-16T14:30:12;8.02;;;4.80;;
14732;SDS011;7457;50.960;6.830;2024-01-16T14:32:40;8.98;;;4.40;;
14732;SDS011;7457;50.960;6.830;2024-01-16T14:35:07;8.38;;;4.18;;
14732;SDS011;7457;50.960;6.830;2024-01-16T14:37:34;6.03;;;3.90;;
14732;SDS011;7457;50.960;6.830;2024-01-16T14:40:01;8.05;;;3.65;;
14732;SDS011;7457;50.960;6.830;2024-01-16T14:42:28;5.53;;;3.92;;
14732;SDS011;7457;50.960;6.830;2024-01-16T14:44:54;4.10;;;3.40;;
14732;SDS011;7457;50.960;6.830;2024-01-16T14:47:21;7.70;;;3.85;;
14732;SDS011;7457;50.960;6.830;2024-01-16T14:49:48;4.88;;;4.47;;
14732;SDS011;7457;50.960;6.830;2024-01-16T14:52:14;6.07;;;4.13;;
14732;SDS011;7457;50.960;6.830;2024-01-16T14:54:40;6.38;;;3.75;;
14732;SDS011;7457;50.960;6.830;2024-01-16T14:57:05;4.88;;;4.18;;
14732;SDS011;7457;50.960;6.830;2024-01-16T14:59:32;8.93;;;4.45;;
14732;SDS011;7457;50.960;6.830;2024-01-16T15:01:58;12.35;;;4.70;;
14732;SDS011;7457;50.960;6.830;2024-01-16T15:04:23;13.25;;;4.32;;